sensor_id;sensor_type;location;lat;lon;timestamp;temperature;humidity
43346;DHT22;28937;51.160;4.146;2022-09-20T00:00:40;17.50;93.10
43346;DHT22;28937;51.160;4.146;2022-09-20T00:03:06;17.50;93.10
43346;DHT22;28937;51.160;4.146;2022-09-20T00:05:33;17.50;93.10
43346;DHT22;28937;51.160;4.146;2022-09-20T00:08:00;17.50;93.40
43346;DHT22;28937;51.160;4.146;2022-09-20T00:10:26;17.40;93.20
43346;DHT22;28937;51.160;4.146;2022-09-20T00:12:52;17.50;93.30
43346;DHT22;28937;51.160;4.146;2022-09-20T00:15:17;17.40;93.20
43346;DHT22;28937;51.160;4.146;2022-09-20T00:17:43;17.40;93.20
43346;DHT22;28937;51.160;4.146;2022-09-20T00:20:08;17.40;93.20
43346;DHT22;28937;51.160;4.146;2022-09-20T00:22:34;17.40;93.20
43346;DHT22;28937;51.160;4.146;2022-09-20T00:25:00;17.40;93.20
43346;DHT22;28937;51.160;4.146;2022-09-20T00:27:25;17.40;93.10
43346;DHT22;28937;51.160;4.146;2022-09-20T00:29:51;17.40;93.10
43346;DHT22;28937;51.160;4.146;2022-09-20T00:32:18;17.30;93.10
43346;DHT22;28937;51.160;4.146;2022-09-20T00:34:43;17.30;93.00
43346;DHT22;28937;51.160;4.146;2022-09-20T00:37:28;17.30;93.10
43346;DHT22;28937;51.160;4.146;2022-09-20T00:39:53;17.30;93.10
43346;DHT22;28937;51.160;4.146;2022-09-20T00:42:19;17.30;93.10
43346;DHT22;28937;51.160;4.146;2022-09-20T00:44:56;17.30;93.20
43346;DHT22;28937;51.160;4.146;2022-09-20T00:47:30;17.30;93.10
43346;DHT22;28937;51.160;4.146;2022-09-20T00:50:21;17.30;93.20
43346;DHT22;28937;51.160;4.146;2022-09-20T00:52:57;17.30;93.20
43346;DHT22;28937;51.160;4.146;2022-09-20T00:55:25;17.30;93.10
43346;DHT22;28937;51.160;4.146;2022-09-20T00:57:52;17.30;93.20
43346;DHT22;28937;51.160;4.146;2022-09-20T01:00:18;17.30;93.20
43346;DHT22;28937;51.160;4.146;2022-09-20T01:02:47;17.20;93.30
43346;DHT22;28937;51.160;4.146;2022-09-20T01:05:14;17.20;93.30
43346;DHT22;28937;51.160;4.146;2022-09-20T01:07:41;17.20;93.40
43346;DHT22;28937;51.160;4.146;2022-09-20T01:10:08;17.20;93.50
43346;DHT22;28937;51.160;4.146;2022-09-20T01:12:34;17.20;93.50
43346;DHT22;28937;51.160;4.146;2022-09-20T01:15:04;17.20;93.60
43346;DHT22;28937;51.160;4.146;2022-09-20T01:17:33;17.20;93.50
43346;DHT22;28937;51.160;4.146;2022-09-20T01:20:19;17.20;93.60
43346;DHT22;28937;51.160;4.146;2022-09-20T01:28:21;17.20;93.60
43346;DHT22;28937;51.160;4.146;2022-09-20T01:36:03;17.20;93.60
43346;DHT22;28937;51.160;4.146;2022-09-20T01:39:13;17.10;93.60
43346;DHT22;28937;51.160;4.146;2022-09-20T01:41:57;17.00;93.90
43346;DHT22;28937;51.160;4.146;2022-09-20T01:47:21;17.10;93.90
43346;DHT22;28937;51.160;4.146;2022-09-20T01:56:08;17.10;94.20
43346;DHT22;28937;51.160;4.146;2022-09-20T02:04:15;17.10;94.40
43346;DHT22;28937;51.160;4.146;2022-09-20T02:06:49;17.10;94.30
43346;DHT22;28937;51.160;4.146;2022-09-20T02:09:35;17.10;94.30
43346;DHT22;28937;51.160;4.146;2022-09-20T02:12:24;17.00;94.30
43346;DHT22;28937;51.160;4.146;2022-09-20T02:17:47;17.10;94.40
43346;DHT22;28937;51.160;4.146;2022-09-20T02:26:23;17.10;94.40
43346;DHT22;28937;51.160;4.146;2022-09-20T02:42:45;17.00;94.60
43346;DHT22;28937;51.160;4.146;2022-09-20T02:45:40;17.00;94.60
43346;DHT22;28937;51.160;4.146;2022-09-20T02:48:04;17.00;94.70
43346;DHT22;28937;51.160;4.146;2022-09-20T02:59:34;17.00;94.60
43346;DHT22;28937;51.160;4.146;2022-09-20T03:07:34;16.90;94.50
43346;DHT22;28937;51.160;4.146;2022-09-20T03:10:36;16.90;94.50
43346;DHT22;28937;51.160;4.146;2022-09-20T03:26:33;16.90;94.30
43346;DHT22;28937;51.160;4.146;2022-09-20T03:29:04;16.90;94.10
43346;DHT22;28937;51.160;4.146;2022-09-20T03:31:41;16.90;94.10
43346;DHT22;28937;51.160;4.146;2022-09-20T03:34:13;16.80;94.10
43346;DHT22;28937;51.160;4.146;2022-09-20T03:42:24;16.80;94.00
43346;DHT22;28937;51.160;4.146;2022-09-20T03:48:41;16.80;94.00
43346;DHT22;28937;51.160;4.146;2022-09-20T03:57:22;16.80;93.80
43346;DHT22;28937;51.160;4.146;2022-09-20T04:05:11;16.70;93.60
43346;DHT22;28937;51.160;4.146;2022-09-20T04:13:24;16.60;93.60
43346;DHT22;28937;51.160;4.146;2022-09-20T04:16:21;16.70;93.50
43346;DHT22;28937;51.160;4.146;2022-09-20T04:18:53;16.70;93.40
43346;DHT22;28937;51.160;4.146;2022-09-20T04:21:38;16.60;93.30
43346;DHT22;28937;51.160;4.146;2022-09-20T04:24:17;16.60;93.40
43346;DHT22;28937;51.160;4.146;2022-09-20T04:26:49;16.60;93.30
43346;DHT22;28937;51.160;4.146;2022-09-20T04:32:34;16.50;93.10
43346;DHT22;28937;51.160;4.146;2022-09-20T04:35:24;16.50;93.20
43346;DHT22;28937;51.160;4.146;2022-09-20T04:38:15;16.50;93.20
43346;DHT22;28937;51.160;4.146;2022-09-20T04:40:53;16.50;93.10
43346;DHT22;28937;51.160;4.146;2022-09-20T04:49:35;16.50;93.00
43346;DHT22;28937;51.160;4.146;2022-09-20T05:00:05;16.40;93.10
43346;DHT22;28937;51.160;4.146;2022-09-20T05:13:28;16.20;93.40
43346;DHT22;28937;51.160;4.146;2022-09-20T05:16:11;16.20;93.40
43346;DHT22;28937;51.160;4.146;2022-09-20T05:29:37;16.20;93.30
43346;DHT22;28937;51.160;4.146;2022-09-20T05:32:26;16.20;93.20
43346;DHT22;28937;51.160;4.146;2022-09-20T05:35:05;16.20;93.40
43346;DHT22;28937;51.160;4.146;2022-09-20T05:37:59;16.20;93.20
43346;DHT22;28937;51.160;4.146;2022-09-20T05:43:42;16.30;93.00
43346;DHT22;28937;51.160;4.146;2022-09-20T05:46:38;16.30;93.00
43346;DHT22;28937;51.160;4.146;2022-09-20T05:49:18;16.30;93.20
43346;DHT22;28937;51.160;4.146;2022-09-20T05:52:12;16.00;93.50
43346;DHT22;28937;51.160;4.146;2022-09-20T05:54:54;15.70;94.10
43346;DHT22;28937;51.160;4.146;2022-09-20T05:57:44;15.60;94.30
43346;DHT22;28937;51.160;4.146;2022-09-20T06:00:19;15.80;94.40
43346;DHT22;28937;51.160;4.146;2022-09-20T06:02:57;15.90;93.80
43346;DHT22;28937;51.160;4.146;2022-09-20T06:08:14;15.70;94.10
43346;DHT22;28937;51.160;4.146;2022-09-20T06:13:34;16.00;93.70
43346;DHT22;28937;51.160;4.146;2022-09-20T06:16:05;16.00;93.80
43346;DHT22;28937;51.160;4.146;2022-09-20T06:21:23;15.90;94.10
43346;DHT22;28937;51.160;4.146;2022-09-20T06:23:59;15.80;94.30
43346;DHT22;28937;51.160;4.146;2022-09-20T06:26:32;15.90;94.20
43346;DHT22;28937;51.160;4.146;2022-09-20T06:29:03;15.90;94.20
43346;DHT22;28937;51.160;4.146;2022-09-20T06:31:30;15.90;94.10
43346;DHT22;28937;51.160;4.146;2022-09-20T06:33:59;16.00;94.20
43346;DHT22;28937;51.160;4.146;2022-09-20T06:36:29;16.10;94.20
43346;DHT22;28937;51.160;4.146;2022-09-20T06:42:26;16.10;94.50
43346;DHT22;28937;51.160;4.146;2022-09-20T06:44:53;16.20;94.50
43346;DHT22;28937;51.160;4.146;2022-09-20T06:47:18;16.20;94.40
43346;DHT22;28937;51.160;4.146;2022-09-20T06:49:44;16.10;94.40
43346;DHT22;28937;51.160;4.146;2022-09-20T06:52:18;16.10;94.60
43346;DHT22;28937;51.160;4.146;2022-09-20T06:54:46;16.10;94.80
43346;DHT22;28937;51.160;4.146;2022-09-20T06:57:16;16.20;94.70
43346;DHT22;28937;51.160;4.146;2022-09-20T06:59:42;16.40;95.10
43346;DHT22;28937;51.160;4.146;2022-09-20T07:02:08;16.80;94.70
43346;DHT22;28937;51.160;4.146;2022-09-20T07:04:34;17.00;94.40
43346;DHT22;28937;51.160;4.146;2022-09-20T07:07:01;17.10;94.20
43346;DHT22;28937;51.160;4.146;2022-09-20T07:09:27;17.10;94.00
43346;DHT22;28937;51.160;4.146;2022-09-20T07:11:53;17.20;93.80
43346;DHT22;28937;51.160;4.146;2022-09-20T07:14:20;17.20;93.80
43346;DHT22;28937;51.160;4.146;2022-09-20T07:16:46;17.30;93.80
43346;DHT22;28937;51.160;4.146;2022-09-20T07:19:11;17.30;93.70
43346;DHT22;28937;51.160;4.146;2022-09-20T07:21:38;17.30;93.60
43346;DHT22;28937;51.160;4.146;2022-09-20T07:24:03;17.40;93.60
43346;DHT22;28937;51.160;4.146;2022-09-20T07:26:29;17.30;93.60
43346;DHT22;28937;51.160;4.146;2022-09-20T07:28:55;17.40;93.60
43346;DHT22;28937;51.160;4.146;2022-09-20T07:31:23;17.40;93.50
43346;DHT22;28937;51.160;4.146;2022-09-20T07:33:49;17.40;93.50
43346;DHT22;28937;51.160;4.146;2022-09-20T07:36:15;17.40;93.40
43346;DHT22;28937;51.160;4.146;2022-09-20T07:38:41;17.40;93.50
43346;DHT22;28937;51.160;4.146;2022-09-20T07:41:08;17.40;93.50
43346;DHT22;28937;51.160;4.146;2022-09-20T07:43:34;17.40;93.50
43346;DHT22;28937;51.160;4.146;2022-09-20T07:46:00;17.40;93.50
43346;DHT22;28937;51.160;4.146;2022-09-20T07:48:31;17.50;93.50
43346;DHT22;28937;51.160;4.146;2022-09-20T07:51:00;17.50;93.60
43346;DHT22;28937;51.160;4.146;2022-09-20T07:53:26;17.50;93.50
43346;DHT22;28937;51.160;4.146;2022-09-20T07:56:00;17.50;93.40
43346;DHT22;28937;51.160;4.146;2022-09-20T07:58:30;17.50;93.50
43346;DHT22;28937;51.160;4.146;2022-09-20T08:00:59;17.50;93.50
43346;DHT22;28937;51.160;4.146;2022-09-20T08:03:25;17.60;93.50
43346;DHT22;28937;51.160;4.146;2022-09-20T08:05:59;17.60;93.40
43346;DHT22;28937;51.160;4.146;2022-09-20T08:08:26;17.60;93.40
43346;DHT22;28937;51.160;4.146;2022-09-20T08:10:52;17.60;93.50
43346;DHT22;28937;51.160;4.146;2022-09-20T08:13:20;17.60;93.40
43346;DHT22;28937;51.160;4.146;2022-09-20T08:15:45;17.60;93.40
43346;DHT22;28937;51.160;4.146;2022-09-20T08:18:12;17.60;93.50
43346;DHT22;28937;51.160;4.146;2022-09-20T08:20:39;17.60;93.60
43346;DHT22;28937;51.160;4.146;2022-09-20T08:23:05;17.60;93.80
43346;DHT22;28937;51.160;4.146;2022-09-20T08:25:31;17.60;93.90
43346;DHT22;28937;51.160;4.146;2022-09-20T08:27:57;17.60;94.20
43346;DHT22;28937;51.160;4.146;2022-09-20T08:30:23;17.60;94.30
43346;DHT22;28937;51.160;4.146;2022-09-20T08:32:49;17.70;94.40
43346;DHT22;28937;51.160;4.146;2022-09-20T08:35:15;17.70;94.30
43346;DHT22;28937;51.160;4.146;2022-09-20T08:37:42;17.70;94.50
43346;DHT22;28937;51.160;4.146;2022-09-20T08:40:11;17.70;94.50
43346;DHT22;28937;51.160;4.146;2022-09-20T08:42:37;17.60;94.50
43346;DHT22;28937;51.160;4.146;2022-09-20T08:45:24;17.70;94.50
43346;DHT22;28937;51.160;4.146;2022-09-20T08:47:59;17.70;94.60
43346;DHT22;28937;51.160;4.146;2022-09-20T08:50:27;17.70;94.60
43346;DHT22;28937;51.160;4.146;2022-09-20T08:52:55;17.70;94.50
43346;DHT22;28937;51.160;4.146;2022-09-20T08:55:26;17.80;94.50
43346;DHT22;28937;51.160;4.146;2022-09-20T08:57:57;17.80;94.40
43346;DHT22;28937;51.160;4.146;2022-09-20T09:00:32;17.80;94.30
43346;DHT22;28937;51.160;4.146;2022-09-20T09:03:03;17.80;94.30
43346;DHT22;28937;51.160;4.146;2022-09-20T09:05:44;17.90;94.10
43346;DHT22;28937;51.160;4.146;2022-09-20T09:08:17;17.90;94.10
43346;DHT22;28937;51.160;4.146;2022-09-20T09:11:06;17.90;94.10
43346;DHT22;28937;51.160;4.146;2022-09-20T09:13:52;18.00;94.10
43346;DHT22;28937;51.160;4.146;2022-09-20T09:16:21;17.90;94.30
43346;DHT22;28937;51.160;4.146;2022-09-20T09:18:47;17.90;94.20
43346;DHT22;28937;51.160;4.146;2022-09-20T09:21:27;18.00;94.10
43346;DHT22;28937;51.160;4.146;2022-09-20T09:24:13;18.00;94.10
43346;DHT22;28937;51.160;4.146;2022-09-20T09:26:41;17.90;94.10
43346;DHT22;28937;51.160;4.146;2022-09-20T09:29:19;18.00;94.20
43346;DHT22;28937;51.160;4.146;2022-09-20T09:31:49;18.00;94.10
43346;DHT22;28937;51.160;4.146;2022-09-20T09:34:27;18.10;94.10
43346;DHT22;28937;51.160;4.146;2022-09-20T09:36:53;18.00;94.20
43346;DHT22;28937;51.160;4.146;2022-09-20T09:39:35;18.00;94.10
43346;DHT22;28937;51.160;4.146;2022-09-20T09:42:23;18.00;94.00
43346;DHT22;28937;51.160;4.146;2022-09-20T09:44:50;18.00;94.10
43346;DHT22;28937;51.160;4.146;2022-09-20T09:47:25;18.10;94.00
43346;DHT22;28937;51.160;4.146;2022-09-20T09:49:56;18.10;94.00
43346;DHT22;28937;51.160;4.146;2022-09-20T09:52:22;18.10;94.00
43346;DHT22;28937;51.160;4.146;2022-09-20T09:54:57;18.10;94.00
43346;DHT22;28937;51.160;4.146;2022-09-20T10:00:14;18.60;84.10
43346;DHT22;28937;51.160;4.146;2022-09-20T10:05:26;18.80;83.70
43346;DHT22;28937;51.160;4.146;2022-09-20T10:13:40;18.90;84.30
43346;DHT22;28937;51.160;4.146;2022-09-20T10:16:36;18.90;85.10
43346;DHT22;28937;51.160;4.146;2022-09-20T10:19:09;18.90;85.00
43346;DHT22;28937;51.160;4.146;2022-09-20T10:21:52;18.90;85.30
43346;DHT22;28937;51.160;4.146;2022-09-20T10:30:16;18.90;85.70
43346;DHT22;28937;51.160;4.146;2022-09-20T10:38:58;18.90;86.10
43346;DHT22;28937;51.160;4.146;2022-09-20T10:44:43;19.00;86.30
43346;DHT22;28937;51.160;4.146;2022-09-20T10:47:16;19.00;86.70
43346;DHT22;28937;51.160;4.146;2022-09-20T10:52:51;19.00;86.80
43346;DHT22;28937;51.160;4.146;2022-09-20T10:55:29;19.00;87.50
43346;DHT22;28937;51.160;4.146;2022-09-20T11:01:27;19.00;87.20
43346;DHT22;28937;51.160;4.146;2022-09-20T11:07:15;19.20;88.80
43346;DHT22;28937;51.160;4.146;2022-09-20T11:10:13;19.10;88.50
43346;DHT22;28937;51.160;4.146;2022-09-20T11:12:47;19.20;89.20
43346;DHT22;28937;51.160;4.146;2022-09-20T11:15:16;19.20;88.60
43346;DHT22;28937;51.160;4.146;2022-09-20T11:17:55;19.20;88.60
43346;DHT22;28937;51.160;4.146;2022-09-20T11:20:31;19.30;88.40
43346;DHT22;28937;51.160;4.146;2022-09-20T11:23:01;19.30;88.50
43346;DHT22;28937;51.160;4.146;2022-09-20T11:25:46;19.30;88.70
43346;DHT22;28937;51.160;4.146;2022-09-20T11:33:47;19.20;87.40
43346;DHT22;28937;51.160;4.146;2022-09-20T11:36:31;19.20;86.70
43346;DHT22;28937;51.160;4.146;2022-09-20T11:41:30;19.20;87.80
43346;DHT22;28937;51.160;4.146;2022-09-20T11:44:03;19.20;87.60
43346;DHT22;28937;51.160;4.146;2022-09-20T11:46:45;19.20;88.20
43346;DHT22;28937;51.160;4.146;2022-09-20T11:49:28;19.10;87.30
43346;DHT22;28937;51.160;4.146;2022-09-20T11:52:10;19.10;87.90
43346;DHT22;28937;51.160;4.146;2022-09-20T11:55:05;19.20;87.80
43346;DHT22;28937;51.160;4.146;2022-09-20T11:57:35;19.30;88.30
43346;DHT22;28937;51.160;4.146;2022-09-20T12:00:03;19.20;87.80
43346;DHT22;28937;51.160;4.146;2022-09-20T12:05:35;19.30;88.60
43346;DHT22;28937;51.160;4.146;2022-09-20T12:08:06;19.30;88.60
43346;DHT22;28937;51.160;4.146;2022-09-20T12:10:36;19.30;88.90
43346;DHT22;28937;51.160;4.146;2022-09-20T12:13:22;19.30;89.50
43346;DHT22;28937;51.160;4.146;2022-09-20T12:18:29;19.40;90.20
43346;DHT22;28937;51.160;4.146;2022-09-20T12:28:37;19.40;90.20
43346;DHT22;28937;51.160;4.146;2022-09-20T12:36:41;19.50;90.30
43346;DHT22;28937;51.160;4.146;2022-09-20T12:52:26;19.50;90.20
43346;DHT22;28937;51.160;4.146;2022-09-20T13:08:38;19.60;90.10
43346;DHT22;28937;51.160;4.146;2022-09-20T13:11:14;19.60;90.40
43346;DHT22;28937;51.160;4.146;2022-09-20T13:16:33;19.70;90.60
43346;DHT22;28937;51.160;4.146;2022-09-20T13:19:20;19.70;90.50
43346;DHT22;28937;51.160;4.146;2022-09-20T13:24:19;19.70;90.40
43346;DHT22;28937;51.160;4.146;2022-09-20T13:26:46;19.70;90.50
43346;DHT22;28937;51.160;4.146;2022-09-20T13:29:30;19.80;90.40
43346;DHT22;28937;51.160;4.146;2022-09-20T13:32:27;19.80;90.40
43346;DHT22;28937;51.160;4.146;2022-09-20T13:37:35;19.80;90.30
43346;DHT22;28937;51.160;4.146;2022-09-20T13:40:03;19.80;90.40
43346;DHT22;28937;51.160;4.146;2022-09-20T13:42:31;19.80;90.50
43346;DHT22;28937;51.160;4.146;2022-09-20T13:45:01;19.80;90.30
43346;DHT22;28937;51.160;4.146;2022-09-20T13:47:30;19.80;90.40
43346;DHT22;28937;51.160;4.146;2022-09-20T13:50:16;19.90;90.30
43346;DHT22;28937;51.160;4.146;2022-09-20T13:52:46;19.80;90.30
43346;DHT22;28937;51.160;4.146;2022-09-20T13:57:56;19.90;90.20
43346;DHT22;28937;51.160;4.146;2022-09-20T14:00:23;19.80;90.00
43346;DHT22;28937;51.160;4.146;2022-09-20T14:02:51;19.90;90.30
43346;DHT22;28937;51.160;4.146;2022-09-20T14:05:19;19.80;90.00
43346;DHT22;28937;51.160;4.146;2022-09-20T14:07:46;19.80;89.90
43346;DHT22;28937;51.160;4.146;2022-09-20T14:10:36;19.80;90.00
43346;DHT22;28937;51.160;4.146;2022-09-20T14:13:05;19.80;90.00
43346;DHT22;28937;51.160;4.146;2022-09-20T14:15:37;19.80;89.50
43346;DHT22;28937;51.160;4.146;2022-09-20T14:18:05;19.60;90.00
43346;DHT22;28937;51.160;4.146;2022-09-20T14:20:32;19.40;90.00
43346;DHT22;28937;51.160;4.146;2022-09-20T14:22:59;19.40;89.20
43346;DHT22;28937;51.160;4.146;2022-09-20T14:25:25;19.20;89.00
43346;DHT22;28937;51.160;4.146;2022-09-20T14:28:16;19.20;89.20
43346;DHT22;28937;51.160;4.146;2022-09-20T14:30:43;19.10;89.30
43346;DHT22;28937;51.160;4.146;2022-09-20T14:33:18;19.00;90.00
43346;DHT22;28937;51.160;4.146;2022-09-20T14:35:49;19.10;90.20
43346;DHT22;28937;51.160;4.146;2022-09-20T14:38:18;19.00;90.30
43346;DHT22;28937;51.160;4.146;2022-09-20T14:40:48;19.10;90.80
43346;DHT22;28937;51.160;4.146;2022-09-20T14:43:29;19.20;90.60
43346;DHT22;28937;51.160;4.146;2022-09-20T14:46:00;19.20;90.60
43346;DHT22;28937;51.160;4.146;2022-09-20T14:48:36;19.30;90.50
43346;DHT22;28937;51.160;4.146;2022-09-20T14:53:48;19.30;90.40
43346;DHT22;28937;51.160;4.146;2022-09-20T14:56:15;19.30;90.10
43346;DHT22;28937;51.160;4.146;2022-09-20T14:59:20;19.30;90.20
43346;DHT22;28937;51.160;4.146;2022-09-20T15:02:07;19.40;91.00
43346;DHT22;28937;51.160;4.146;2022-09-20T15:04:35;19.40;91.50
43346;DHT22;28937;51.160;4.146;2022-09-20T15:07:07;19.40;90.90
43346;DHT22;28937;51.160;4.146;2022-09-20T15:09:35;19.40;90.40
43346;DHT22;28937;51.160;4.146;2022-09-20T15:12:06;19.40;90.20
43346;DHT22;28937;51.160;4.146;2022-09-20T15:14:36;19.40;89.70
43346;DHT22;28937;51.160;4.146;2022-09-20T15:17:02;19.50;89.90
43346;DHT22;28937;51.160;4.146;2022-09-20T15:19:28;19.40;88.10
43346;DHT22;28937;51.160;4.146;2022-09-20T15:21:55;19.40;86.90
43346;DHT22;28937;51.160;4.146;2022-09-20T15:24:21;19.40;88.30
43346;DHT22;28937;51.160;4.146;2022-09-20T15:26:47;19.50;87.60
43346;DHT22;28937;51.160;4.146;2022-09-20T15:29:14;19.60;88.50
43346;DHT22;28937;51.160;4.146;2022-09-20T15:31:43;19.60;86.70
43346;DHT22;28937;51.160;4.146;2022-09-20T15:34:09;19.50;85.30
43346;DHT22;28937;51.160;4.146;2022-09-20T15:36:37;19.50;84.90
43346;DHT22;28937;51.160;4.146;2022-09-20T15:39:03;19.60;85.10
43346;DHT22;28937;51.160;4.146;2022-09-20T15:41:29;19.60;85.90
43346;DHT22;28937;51.160;4.146;2022-09-20T15:43:56;19.60;85.10
43346;DHT22;28937;51.160;4.146;2022-09-20T15:46:23;19.40;84.70
43346;DHT22;28937;51.160;4.146;2022-09-20T15:48:52;19.50;85.80
43346;DHT22;28937;51.160;4.146;2022-09-20T15:51:18;19.60;85.40
43346;DHT22;28937;51.160;4.146;2022-09-20T15:53:46;19.50;84.70
43346;DHT22;28937;51.160;4.146;2022-09-20T15:56:22;19.60;84.60
43346;DHT22;28937;51.160;4.146;2022-09-20T15:58:50;19.60;85.30
43346;DHT22;28937;51.160;4.146;2022-09-20T16:01:17;19.60;85.90
43346;DHT22;28937;51.160;4.146;2022-09-20T16:03:44;19.60;86.40
43346;DHT22;28937;51.160;4.146;2022-09-20T16:06:12;19.60;86.20
43346;DHT22;28937;51.160;4.146;2022-09-20T16:08:40;19.70;86.60
43346;DHT22;28937;51.160;4.146;2022-09-20T16:11:07;19.70;85.90
43346;DHT22;28937;51.160;4.146;2022-09-20T16:13:34;19.60;84.90
43346;DHT22;28937;51.160;4.146;2022-09-20T16:16:04;19.60;85.60
43346;DHT22;28937;51.160;4.146;2022-09-20T16:18:30;19.60;85.60
43346;DHT22;28937;51.160;4.146;2022-09-20T16:21:17;19.50;85.50
43346;DHT22;28937;51.160;4.146;2022-09-20T16:23:51;19.60;86.70
43346;DHT22;28937;51.160;4.146;2022-09-20T16:26:18;19.60;87.00
43346;DHT22;28937;51.160;4.146;2022-09-20T16:28:44;19.60;85.60
43346;DHT22;28937;51.160;4.146;2022-09-20T16:36:45;19.60;86.40
43346;DHT22;28937;51.160;4.146;2022-09-20T16:39:11;19.60;86.70
43346;DHT22;28937;51.160;4.146;2022-09-20T16:41:37;19.50;86.40
43346;DHT22;28937;51.160;4.146;2022-09-20T16:44:06;19.60;87.20
43346;DHT22;28937;51.160;4.146;2022-09-20T16:46:32;19.50;86.60
43346;DHT22;28937;51.160;4.146;2022-09-20T16:49:03;19.60;87.90
43346;DHT22;28937;51.160;4.146;2022-09-20T16:51:34;19.60;88.50
43346;DHT22;28937;51.160;4.146;2022-09-20T16:54:04;19.60;87.90
43346;DHT22;28937;51.160;4.146;2022-09-20T16:56:32;19.60;88.10
43346;DHT22;28937;51.160;4.146;2022-09-20T16:59:03;19.60;87.90
43346;DHT22;28937;51.160;4.146;2022-09-20T17:01:29;19.60;86.60
43346;DHT22;28937;51.160;4.146;2022-09-20T17:03:56;19.50;86.70
43346;DHT22;28937;51.160;4.146;2022-09-20T17:06:22;19.50;86.60
43346;DHT22;28937;51.160;4.146;2022-09-20T17:08:51;19.40;86.50
43346;DHT22;28937;51.160;4.146;2022-09-20T17:11:20;19.40;86.70
43346;DHT22;28937;51.160;4.146;2022-09-20T17:13:47;19.40;86.70
43346;DHT22;28937;51.160;4.146;2022-09-20T17:16:24;19.40;87.30
43346;DHT22;28937;51.160;4.146;2022-09-20T17:18:54;19.40;87.80
43346;DHT22;28937;51.160;4.146;2022-09-20T17:21:20;19.40;87.90
43346;DHT22;28937;51.160;4.146;2022-09-20T17:23:48;19.40;88.00
43346;DHT22;28937;51.160;4.146;2022-09-20T17:26:22;19.40;88.20
43346;DHT22;28937;51.160;4.146;2022-09-20T17:28:49;19.40;88.20
43346;DHT22;28937;51.160;4.146;2022-09-20T17:31:18;19.40;88.50
43346;DHT22;28937;51.160;4.146;2022-09-20T17:33:45;19.30;88.50
43346;DHT22;28937;51.160;4.146;2022-09-20T17:36:16;19.30;88.40
43346;DHT22;28937;51.160;4.146;2022-09-20T17:38:44;19.30;88.40
43346;DHT22;28937;51.160;4.146;2022-09-20T17:41:16;19.20;88.10
43346;DHT22;28937;51.160;4.146;2022-09-20T17:43:43;19.10;86.90
43346;DHT22;28937;51.160;4.146;2022-09-20T17:48:46;19.00;87.30
43346;DHT22;28937;51.160;4.146;2022-09-20T17:51:18;19.10;86.70
43346;DHT22;28937;51.160;4.146;2022-09-20T17:53:45;19.00;86.50
43346;DHT22;28937;51.160;4.146;2022-09-20T17:56:14;19.00;86.10
43346;DHT22;28937;51.160;4.146;2022-09-20T17:58:40;19.00;86.40
43346;DHT22;28937;51.160;4.146;2022-09-20T18:01:14;19.00;86.70
43346;DHT22;28937;51.160;4.146;2022-09-20T18:03:42;19.00;86.70
43346;DHT22;28937;51.160;4.146;2022-09-20T18:08:40;18.90;86.90
43346;DHT22;28937;51.160;4.146;2022-09-20T18:11:09;18.90;86.70
43346;DHT22;28937;51.160;4.146;2022-09-20T18:13:35;18.90;86.90
43346;DHT22;28937;51.160;4.146;2022-09-20T18:16:01;18.90;86.60
43346;DHT22;28937;51.160;4.146;2022-09-20T18:18:27;18.80;86.90
43346;DHT22;28937;51.160;4.146;2022-09-20T18:20:52;18.80;87.60
43346;DHT22;28937;51.160;4.146;2022-09-20T18:23:18;18.90;88.00
43346;DHT22;28937;51.160;4.146;2022-09-20T18:25:43;18.90;88.30
43346;DHT22;28937;51.160;4.146;2022-09-20T18:28:27;19.00;88.60
43346;DHT22;28937;51.160;4.146;2022-09-20T18:31:03;19.00;88.50
43346;DHT22;28937;51.160;4.146;2022-09-20T18:33:29;18.90;88.70
43346;DHT22;28937;51.160;4.146;2022-09-20T18:36:02;18.90;89.60
43346;DHT22;28937;51.160;4.146;2022-09-20T18:38:29;18.90;89.70
43346;DHT22;28937;51.160;4.146;2022-09-20T18:40:59;18.90;89.70
43346;DHT22;28937;51.160;4.146;2022-09-20T18:43:29;19.00;89.80
43346;DHT22;28937;51.160;4.146;2022-09-20T18:45:56;19.00;89.60
43346;DHT22;28937;51.160;4.146;2022-09-20T18:48:23;19.00;89.80
43346;DHT22;28937;51.160;4.146;2022-09-20T18:50:57;18.90;89.00
43346;DHT22;28937;51.160;4.146;2022-09-20T18:53:30;18.70;89.70
43346;DHT22;28937;51.160;4.146;2022-09-20T18:58:33;18.30;90.30
43346;DHT22;28937;51.160;4.146;2022-09-20T19:09:36;18.10;90.60
43346;DHT22;28937;51.160;4.146;2022-09-20T19:12:11;18.00;90.70
43346;DHT22;28937;51.160;4.146;2022-09-20T19:15:08;18.00;90.80
43346;DHT22;28937;51.160;4.146;2022-09-20T19:20:42;17.50;91.30
43346;DHT22;28937;51.160;4.146;2022-09-20T19:23:40;17.30;91.60
43346;DHT22;28937;51.160;4.146;2022-09-20T19:26:26;17.20;92.00
43346;DHT22;28937;51.160;4.146;2022-09-20T19:28:57;17.10;92.20
43346;DHT22;28937;51.160;4.146;2022-09-20T19:31:25;17.10;92.40
43346;DHT22;28937;51.160;4.146;2022-09-20T19:33:52;17.00;92.50
43346;DHT22;28937;51.160;4.146;2022-09-20T19:39:26;17.00;92.50
43346;DHT22;28937;51.160;4.146;2022-09-20T19:50:32;16.90;92.80
43346;DHT22;28937;51.160;4.146;2022-09-20T19:53:01;16.80;92.90
43346;DHT22;28937;51.160;4.146;2022-09-20T19:55:32;16.80;93.00
43346;DHT22;28937;51.160;4.146;2022-09-20T19:57:58;16.80;93.00
43346;DHT22;28937;51.160;4.146;2022-09-20T20:00:24;16.70;93.00
43346;DHT22;28937;51.160;4.146;2022-09-20T20:02:50;16.70;93.10
43346;DHT22;28937;51.160;4.146;2022-09-20T20:05:20;16.60;93.10
43346;DHT22;28937;51.160;4.146;2022-09-20T20:11:05;16.60;93.10
43346;DHT22;28937;51.160;4.146;2022-09-20T20:13:35;16.70;93.00
43346;DHT22;28937;51.160;4.146;2022-09-20T20:19:15;16.50;93.20
43346;DHT22;28937;51.160;4.146;2022-09-20T20:22:33;16.50;93.30
43346;DHT22;28937;51.160;4.146;2022-09-20T20:24:52;16.50;93.30
43346;DHT22;28937;51.160;4.146;2022-09-20T20:27:19;16.40;93.20
43346;DHT22;28937;51.160;4.146;2022-09-20T20:29:45;16.40;93.30
43346;DHT22;28937;51.160;4.146;2022-09-20T20:32:11;16.40;93.30
43346;DHT22;28937;51.160;4.146;2022-09-20T20:34:37;16.30;93.50
43346;DHT22;28937;51.160;4.146;2022-09-20T20:37:03;16.30;93.50
43346;DHT22;28937;51.160;4.146;2022-09-20T20:39:29;16.30;93.50
43346;DHT22;28937;51.160;4.146;2022-09-20T20:42:05;16.20;93.60
43346;DHT22;28937;51.160;4.146;2022-09-20T20:44:33;16.20;93.60
43346;DHT22;28937;51.160;4.146;2022-09-20T20:47:03;16.20;93.60
43346;DHT22;28937;51.160;4.146;2022-09-20T20:49:30;16.20;94.00
43346;DHT22;28937;51.160;4.146;2022-09-20T20:51:55;16.20;93.70
43346;DHT22;28937;51.160;4.146;2022-09-20T20:54:22;16.10;93.80
43346;DHT22;28937;51.160;4.146;2022-09-20T20:56:48;16.10;93.80
43346;DHT22;28937;51.160;4.146;2022-09-20T20:59:13;16.00;93.80
43346;DHT22;28937;51.160;4.146;2022-09-20T21:01:40;16.00;93.90